sensor_id;sensor_type;location;lat;lon;timestamp;P1;durP1;ratioP1;P2;durP2;ratioP2
22415;SDS011;12204;50.600;4.608;2022-11-18T00:02:46;4.28;;;1.10;;
22415;SDS011;12204;50.600;4.608;2022-11-18T00:07:50;4.75;;;0.88;;
22415;SDS011;12204;50.600;4.608;2022-11-18T00:12:54;3.40;;;1.00;;
22415;SDS011;12204;50.600;4.608;2022-11-18T00:18:17;2.72;;;0.95;;
22415;SDS011;12204;50.600;4.608;2022-11-18T00:23:21;3.13;;;1.08;;
22415;SDS011;12204;50.600;4.608;2022-11-18T00:28:24;3.92;;;1.25;;
22415;SDS011;12204;50.600;4.608;2022-11-18T00:33:30;2.50;;;1.00;;
22415;SDS011;12204;50.600;4.608;2022-11-18T00:38:37;3.22;;;1.00;;
22415;SDS011;12204;50.600;4.608;2022-11-18T00:43:41;2.75;;;1.02;;
22415;SDS011;12204;50.600;4.608;2022-11-18T00:48:46;3.35;;;0.85;;
22415;SDS011;12204;50.600;4.608;2022-11-18T00:53:50;3.03;;;1.00;;
22415;SDS011;12204;50.600;4.608;2022-11-18T00:58:55;3.05;;;1.00;;
22415;SDS011;12204;50.600;4.608;2022-11-18T01:04:00;3.17;;;1.10;;
22415;SDS011;12204;50.600;4.608;2022-11-18T01:09:04;3.58;;;1.00;;
22415;SDS011;12204;50.600;4.608;2022-11-18T01:14:07;4.88;;;1.10;;
22415;SDS011;12204;50.600;4.608;2022-11-18T01:19:12;4.90;;;1.10;;
22415;SDS011;12204;50.600;4.608;2022-11-18T01:24:18;4.43;;;1.00;;
22415;SDS011;12204;50.600;4.608;2022-11-18T01:29:22;3.53;;;1.00;;
22415;SDS011;12204;50.600;4.608;2022-11-18T01:34:27;3.55;;;1.10;;
22415;SDS011;12204;50.600;4.608;2022-11-18T01:39:31;3.55;;;1.02;;
22415;SDS011;12204;50.600;4.608;2022-11-18T01:50:12;4.43;;;1.10;;
22415;SDS011;12204;50.600;4.608;2022-11-18T01:55:22;2.92;;;1.00;;
22415;SDS011;12204;50.600;4.608;2022-11-18T02:00:31;2.67;;;0.93;;
22415;SDS011;12204;50.600;4.608;2022-11-18T02:05:37;2.10;;;0.80;;
22415;SDS011;12204;50.600;4.608;2022-11-18T02:10:42;7.22;;;1.00;;
22415;SDS011;12204;50.600;4.608;2022-11-18T02:15:47;2.65;;;0.80;;
22415;SDS011;12204;50.600;4.608;2022-11-18T02:21:03;3.10;;;0.93;;
22415;SDS011;12204;50.600;4.608;2022-11-18T02:32:40;3.65;;;0.80;;
22415;SDS011;12204;50.600;4.608;2022-11-18T02:37:53;2.60;;;0.90;;
22415;SDS011;12204;50.600;4.608;2022-11-18T02:43:03;5.65;;;0.90;;
22415;SDS011;12204;50.600;4.608;2022-11-18T02:48:12;6.38;;;1.05;;
22415;SDS011;12204;50.600;4.608;2022-11-18T02:53:19;2.50;;;0.90;;
22415;SDS011;12204;50.600;4.608;2022-11-18T02:58:25;2.83;;;0.80;;
22415;SDS011;12204;50.600;4.608;2022-11-18T03:03:30;2.78;;;0.90;;
22415;SDS011;12204;50.600;4.608;2022-11-18T03:13:47;3.70;;;1.02;;
22415;SDS011;12204;50.600;4.608;2022-11-18T03:19:12;3.97;;;1.00;;
22415;SDS011;12204;50.600;4.608;2022-11-18T03:24:24;3.03;;;0.90;;
22415;SDS011;12204;50.600;4.608;2022-11-18T03:29:35;2.17;;;0.80;;
22415;SDS011;12204;50.600;4.608;2022-11-18T03:34:46;2.83;;;0.90;;
22415;SDS011;12204;50.600;4.608;2022-11-18T03:39:53;2.67;;;0.90;;
22415;SDS011;12204;50.600;4.608;2022-11-18T03:45:08;2.33;;;0.73;;
22415;SDS011;12204;50.600;4.608;2022-11-18T03:50:20;2.42;;;0.90;;
22415;SDS011;12204;50.600;4.608;2022-11-18T03:55:29;3.42;;;0.75;;
22415;SDS011;12204;50.600;4.608;2022-11-18T04:00:39;7.07;;;0.85;;
22415;SDS011;12204;50.600;4.608;2022-11-18T04:05:48;3.60;;;0.90;;
22415;SDS011;12204;50.600;4.608;2022-11-18T04:11:00;2.45;;;0.80;;
22415;SDS011;12204;50.600;4.608;2022-11-18T04:16:10;2.88;;;0.80;;
22415;SDS011;12204;50.600;4.608;2022-11-18T04:21:15;2.33;;;0.90;;
22415;SDS011;12204;50.600;4.608;2022-11-18T04:26:19;3.53;;;0.80;;
22415;SDS011;12204;50.600;4.608;2022-11-18T04:31:23;2.90;;;0.80;;
22415;SDS011;12204;50.600;4.608;2022-11-18T04:36:28;2.35;;;0.80;;
22415;SDS011;12204;50.600;4.608;2022-11-18T04:41:31;2.05;;;0.80;;
22415;SDS011;12204;50.600;4.608;2022-11-18T04:46:52;2.08;;;0.82;;
22415;SDS011;12204;50.600;4.608;2022-11-18T04:52:01;2.08;;;0.73;;
22415;SDS011;12204;50.600;4.608;2022-11-18T04:57:05;2.17;;;0.80;;
22415;SDS011;12204;50.600;4.608;2022-11-18T05:02:09;1.90;;;0.70;;
22415;SDS011;12204;50.600;4.608;2022-11-18T05:07:16;2.05;;;0.80;;
22415;SDS011;12204;50.600;4.608;2022-11-18T05:12:20;2.28;;;0.70;;
22415;SDS011;12204;50.600;4.608;2022-11-18T05:17:41;3.17;;;0.80;;
22415;SDS011;12204;50.600;4.608;2022-11-18T05:22:46;3.35;;;0.75;;
22415;SDS011;12204;50.600;4.608;2022-11-18T05:27:50;2.10;;;0.63;;
22415;SDS011;12204;50.600;4.608;2022-11-18T05:32:55;3.03;;;0.80;;
22415;SDS011;12204;50.600;4.608;2022-11-18T05:38:01;3.78;;;0.80;;
22415;SDS011;12204;50.600;4.608;2022-11-18T05:43:05;3.72;;;0.70;;
22415;SDS011;12204;50.600;4.608;2022-11-18T05:53:18;3.28;;;0.80;;
22415;SDS011;12204;50.600;4.608;2022-11-18T05:58:25;4.18;;;0.70;;
22415;SDS011;12204;50.600;4.608;2022-11-18T06:03:29;4.53;;;0.70;;
22415;SDS011;12204;50.600;4.608;2022-11-18T06:08:41;2.30;;;0.73;;
22415;SDS011;12204;50.600;4.608;2022-11-18T06:13:50;3.38;;;0.80;;
22415;SDS011;12204;50.600;4.608;2022-11-18T06:19:01;1.83;;;0.60;;
22415;SDS011;12204;50.600;4.608;2022-11-18T06:24:07;2.47;;;0.80;;
22415;SDS011;12204;50.600;4.608;2022-11-18T06:29:11;2.42;;;0.80;;
22415;SDS011;12204;50.600;4.608;2022-11-18T06:34:26;2.78;;;0.80;;
22415;SDS011;12204;50.600;4.608;2022-11-18T06:39:31;2.90;;;0.70;;
22415;SDS011;12204;50.600;4.608;2022-11-18T06:44:34;4.05;;;0.70;;
22415;SDS011;12204;50.600;4.608;2022-11-18T06:49:38;3.10;;;0.70;;
22415;SDS011;12204;50.600;4.608;2022-11-18T06:54:44;2.92;;;0.70;;
22415;SDS011;12204;50.600;4.608;2022-11-18T06:59:47;1.95;;;0.70;;
22415;SDS011;12204;50.600;4.608;2022-11-18T07:04:51;11.20;;;0.80;;
22415;SDS011;12204;50.600;4.608;2022-11-18T07:09:56;2.70;;;0.70;;
22415;SDS011;12204;50.600;4.608;2022-11-18T07:15:00;7.70;;;0.80;;
22415;SDS011;12204;50.600;4.608;2022-11-18T07:20:04;8.73;;;1.00;;
22415;SDS011;12204;50.600;4.608;2022-11-18T07:25:11;5.30;;;0.82;;
22415;SDS011;12204;50.600;4.608;2022-11-18T07:30:16;4.03;;;0.90;;
22415;SDS011;12204;50.600;4.608;2022-11-18T07:35:20;18.98;;;1.23;;
22415;SDS011;12204;50.600;4.608;2022-11-18T07:40:25;12.30;;;1.20;;
22415;SDS011;12204;50.600;4.608;2022-11-18T07:45:28;11.95;;;1.58;;
22415;SDS011;12204;50.600;4.608;2022-11-18T07:50:32;7.25;;;1.35;;
22415;SDS011;12204;50.600;4.608;2022-11-18T07:55:37;8.88;;;2.53;;
22415;SDS011;12204;50.600;4.608;2022-11-18T08:00:41;35.58;;;15.10;;
22415;SDS011;12204;50.600;4.608;2022-11-18T08:05:45;42.22;;;18.92;;
22415;SDS011;12204;50.600;4.608;2022-11-18T08:10:50;35.63;;;17.15;;
22415;SDS011;12204;50.600;4.608;2022-11-18T08:15:59;35.58;;;16.98;;
22415;SDS011;12204;50.600;4.608;2022-11-18T08:21:05;33.45;;;15.73;;
22415;SDS011;12204;50.600;4.608;2022-11-18T08:26:11;30.80;;;14.77;;
22415;SDS011;12204;50.600;4.608;2022-11-18T08:36:25;29.27;;;13.17;;
22415;SDS011;12204;50.600;4.608;2022-11-18T08:41:34;27.20;;;12.40;;
22415;SDS011;12204;50.600;4.608;2022-11-18T08:46:41;25.30;;;11.50;;
22415;SDS011;12204;50.600;4.608;2022-11-18T08:51:46;22.25;;;10.05;;
22415;SDS011;12204;50.600;4.608;2022-11-18T08:56:51;25.50;;;10.38;;
22415;SDS011;12204;50.600;4.608;2022-11-18T09:01:55;21.15;;;9.73;;
22415;SDS011;12204;50.600;4.608;2022-11-18T09:06:58;17.70;;;8.48;;
22415;SDS011;12204;50.600;4.608;2022-11-18T09:12:05;19.60;;;8.25;;
22415;SDS011;12204;50.600;4.608;2022-11-18T09:17:09;18.48;;;7.57;;
22415;SDS011;12204;50.600;4.608;2022-11-18T09:22:14;16.90;;;7.13;;
22415;SDS011;12204;50.600;4.608;2022-11-18T09:27:19;16.67;;;7.00;;
22415;SDS011;12204;50.600;4.608;2022-11-18T09:32:23;17.88;;;7.03;;
22415;SDS011;12204;50.600;4.608;2022-11-18T09:37:27;17.85;;;7.03;;
22415;SDS011;12204;50.600;4.608;2022-11-18T09:42:37;17.38;;;7.22;;
22415;SDS011;12204;50.600;4.608;2022-11-18T09:47:55;16.55;;;6.65;;
22415;SDS011;12204;50.600;4.608;2022-11-18T09:53:05;15.20;;;6.82;;
22415;SDS011;12204;50.600;4.608;2022-11-18T09:58:24;15.45;;;7.15;;
22415;SDS011;12204;50.600;4.608;2022-11-18T10:03:36;16.42;;;7.00;;
22415;SDS011;12204;50.600;4.608;2022-11-18T10:08:41;16.17;;;6.63;;
22415;SDS011;12204;50.600;4.608;2022-11-18T10:14:06;16.35;;;6.55;;
22415;SDS011;12204;50.600;4.608;2022-11-18T10:19:26;13.20;;;6.28;;
22415;SDS011;12204;50.600;4.608;2022-11-18T10:24:36;12.98;;;6.20;;
22415;SDS011;12204;50.600;4.608;2022-11-18T10:29:47;14.68;;;6.38;;
22415;SDS011;12204;50.600;4.608;2022-11-18T10:34:57;13.95;;;6.18;;
22415;SDS011;12204;50.600;4.608;2022-11-18T10:40:02;15.35;;;6.20;;
22415;SDS011;12204;50.600;4.608;2022-11-18T10:45:15;14.20;;;5.53;;
22415;SDS011;12204;50.600;4.608;2022-11-18T10:50:29;14.68;;;5.57;;
22415;SDS011;12204;50.600;4.608;2022-11-18T10:55:36;16.02;;;6.30;;
22415;SDS011;12204;50.600;4.608;2022-11-18T11:00:42;14.07;;;5.82;;
22415;SDS011;12204;50.600;4.608;2022-11-18T11:11:54;13.88;;;5.53;;
22415;SDS011;12204;50.600;4.608;2022-11-18T11:17:05;14.52;;;5.82;;
22415;SDS011;12204;50.600;4.608;2022-11-18T11:22:14;12.35;;;5.40;;
22415;SDS011;12204;50.600;4.608;2022-11-18T11:33:20;12.27;;;5.18;;
22415;SDS011;12204;50.600;4.608;2022-11-18T11:38:40;11.27;;;4.85;;
22415;SDS011;12204;50.600;4.608;2022-11-18T11:44:11;10.82;;;4.85;;
22415;SDS011;12204;50.600;4.608;2022-11-18T11:49:38;11.23;;;4.75;;
22415;SDS011;12204;50.600;4.608;2022-11-18T11:54:55;12.07;;;4.82;;
22415;SDS011;12204;50.600;4.608;2022-11-18T12:00:21;11.45;;;4.50;;
22415;SDS011;12204;50.600;4.608;2022-11-18T12:05:29;11.00;;;4.32;;
22415;SDS011;12204;50.600;4.608;2022-11-18T12:10:39;10.18;;;3.97;;
22415;SDS011;12204;50.600;4.608;2022-11-18T12:15:54;10.57;;;3.90;;
22415;SDS011;12204;50.600;4.608;2022-11-18T12:27:05;9.05;;;3.55;;
22415;SDS011;12204;50.600;4.608;2022-11-18T12:32:26;9.65;;;3.67;;
22415;SDS011;12204;50.600;4.608;2022-11-18T12:37:45;10.50;;;3.60;;
22415;SDS011;12204;50.600;4.608;2022-11-18T12:43:03;10.48;;;3.40;;
22415;SDS011;12204;50.600;4.608;2022-11-18T12:48:29;9.65;;;3.33;;
22415;SDS011;12204;50.600;4.608;2022-11-18T12:53:44;10.25;;;3.35;;
22415;SDS011;12204;50.600;4.608;2022-11-18T12:58:50;7.88;;;3.10;;
22415;SDS011;12204;50.600;4.608;2022-11-18T13:04:04;8.23;;;3.38;;
22415;SDS011;12204;50.600;4.608;2022-11-18T13:09:13;8.48;;;3.40;;
22415;SDS011;12204;50.600;4.608;2022-11-18T13:14:22;8.43;;;2.90;;
22415;SDS011;12204;50.600;4.608;2022-11-18T13:19:54;8.60;;;2.90;;
22415;SDS011;12204;50.600;4.608;2022-11-18T13:25:00;9.05;;;3.17;;
22415;SDS011;12204;50.600;4.608;2022-11-18T13:30:05;7.53;;;2.72;;
22415;SDS011;12204;50.600;4.608;2022-11-18T13:35:13;7.93;;;3.03;;
22415;SDS011;12204;50.600;4.608;2022-11-18T13:40:23;6.85;;;2.80;;
22415;SDS011;12204;50.600;4.608;2022-11-18T13:45:30;6.43;;;2.50;;
22415;SDS011;12204;50.600;4.608;2022-11-18T13:50:36;7.22;;;2.60;;
22415;SDS011;12204;50.600;4.608;2022-11-18T13:55:46;7.60;;;2.58;;
22415;SDS011;12204;50.600;4.608;2022-11-18T14:00:55;7.40;;;2.20;;
22415;SDS011;12204;50.600;4.608;2022-11-18T14:06:02;6.22;;;2.13;;
22415;SDS011;12204;50.600;4.608;2022-11-18T14:11:09;6.78;;;2.28;;
22415;SDS011;12204;50.600;4.608;2022-11-18T14:16:29;6.80;;;2.17;;
22415;SDS011;12204;50.600;4.608;2022-11-18T14:21:36;6.05;;;2.10;;
22415;SDS011;12204;50.600;4.608;2022-11-18T14:26:41;5.50;;;2.08;;
22415;SDS011;12204;50.600;4.608;2022-11-18T14:32:00;7.38;;;2.25;;
22415;SDS011;12204;50.600;4.608;2022-11-18T14:37:15;6.28;;;2.00;;
22415;SDS011;12204;50.600;4.608;2022-11-18T14:42:20;5.45;;;1.88;;
22415;SDS011;12204;50.600;4.608;2022-11-18T14:47:25;6.63;;;2.10;;
22415;SDS011;12204;50.600;4.608;2022-11-18T14:57:37;5.90;;;2.30;;
22415;SDS011;12204;50.600;4.608;2022-11-18T15:02:40;5.97;;;1.85;;
22415;SDS011;12204;50.600;4.608;2022-11-18T15:07:44;5.40;;;1.67;;
22415;SDS011;12204;50.600;4.608;2022-11-18T15:12:49;6.82;;;2.10;;
22415;SDS011;12204;50.600;4.608;2022-11-18T15:17:53;5.05;;;1.80;;
22415;SDS011;12204;50.600;4.608;2022-11-18T15:22:57;5.80;;;2.00;;
22415;SDS011;12204;50.600;4.608;2022-11-18T15:28:02;5.93;;;1.88;;
22415;SDS011;12204;50.600;4.608;2022-11-18T15:33:06;5.45;;;1.73;;
22415;SDS011;12204;50.600;4.608;2022-11-18T15:38:10;4.63;;;1.60;;
22415;SDS011;12204;50.600;4.608;2022-11-18T15:43:15;5.07;;;1.83;;
22415;SDS011;12204;50.600;4.608;2022-11-18T15:48:18;5.07;;;1.55;;
22415;SDS011;12204;50.600;4.608;2022-11-18T15:53:22;4.70;;;1.58;;
22415;SDS011;12204;50.600;4.608;2022-11-18T15:58:27;4.75;;;1.60;;
22415;SDS011;12204;50.600;4.608;2022-11-18T16:03:36;5.55;;;1.70;;
22415;SDS011;12204;50.600;4.608;2022-11-18T16:08:40;4.72;;;1.55;;
22415;SDS011;12204;50.600;4.608;2022-11-18T16:13:45;4.50;;;1.60;;
22415;SDS011;12204;50.600;4.608;2022-11-18T16:18:52;3.88;;;1.35;;
22415;SDS011;12204;50.600;4.608;2022-11-18T16:23:56;3.63;;;1.50;;
22415;SDS011;12204;50.600;4.608;2022-11-18T16:29:04;3.55;;;1.33;;
22415;SDS011;12204;50.600;4.608;2022-11-18T16:34:09;4.50;;;1.40;;
22415;SDS011;12204;50.600;4.608;2022-11-18T16:39:16;2.88;;;1.20;;
22415;SDS011;12204;50.600;4.608;2022-11-18T16:44:25;3.83;;;1.23;;
22415;SDS011;12204;50.600;4.608;2022-11-18T16:49:29;3.90;;;1.40;;
22415;SDS011;12204;50.600;4.608;2022-11-18T16:54:33;4.05;;;1.30;;
22415;SDS011;12204;50.600;4.608;2022-11-18T16:59:46;4.68;;;1.30;;
22415;SDS011;12204;50.600;4.608;2022-11-18T17:04:50;3.95;;;1.38;;
22415;SDS011;12204;50.600;4.608;2022-11-18T17:09:54;4.03;;;1.40;;
22415;SDS011;12204;50.600;4.608;2022-11-18T17:14:59;3.53;;;1.30;;
22415;SDS011;12204;50.600;4.608;2022-11-18T17:20:03;4.20;;;1.30;;
22415;SDS011;12204;50.600;4.608;2022-11-18T17:25:08;3.95;;;1.25;;
22415;SDS011;12204;50.600;4.608;2022-11-18T17:30:13;3.97;;;1.40;;
22415;SDS011;12204;50.600;4.608;2022-11-18T17:35:18;4.40;;;1.30;;
22415;SDS011;12204;50.600;4.608;2022-11-18T17:40:21;3.25;;;1.08;;
22415;SDS011;12204;50.600;4.608;2022-11-18T17:45:26;3.65;;;1.15;;
22415;SDS011;12204;50.600;4.608;2022-11-18T17:50:30;4.00;;;1.10;;
22415;SDS011;12204;50.600;4.608;2022-11-18T17:55:33;3.90;;;1.23;;
22415;SDS011;12204;50.600;4.608;2022-11-18T18:00:39;2.88;;;1.00;;
22415;SDS011;12204;50.600;4.608;2022-11-18T18:05:42;3.97;;;1.00;;
22415;SDS011;12204;50.600;4.608;2022-11-18T18:10:46;4.43;;;1.05;;
22415;SDS011;12204;50.600;4.608;2022-11-18T18:15:58;5.10;;;0.90;;
22415;SDS011;12204;50.600;4.608;2022-11-18T18:21:04;4.82;;;1.20;;
22415;SDS011;12204;50.600;4.608;2022-11-18T18:26:13;5.00;;;1.20;;
22415;SDS011;12204;50.600;4.608;2022-11-18T18:31:19;5.72;;;1.10;;
22415;SDS011;12204;50.600;4.608;2022-11-18T18:36:23;3.65;;;0.90;;
22415;SDS011;12204;50.600;4.608;2022-11-18T18:41:27;2.95;;;0.88;;
22415;SDS011;12204;50.600;4.608;2022-11-18T18:46:32;5.15;;;1.25;;
22415;SDS011;12204;50.600;4.608;2022-11-18T18:51:38;4.40;;;1.10;;
22415;SDS011;12204;50.600;4.608;2022-11-18T18:56:44;3.65;;;1.05;;
22415;SDS011;12204;50.600;4.608;2022-11-18T19:01:49;4.35;;;1.17;;
22415;SDS011;12204;50.600;4.608;2022-11-18T19:06:53;4.50;;;1.30;;
22415;SDS011;12204;50.600;4.608;2022-11-18T19:12:00;3.97;;;1.13;;
22415;SDS011;12204;50.600;4.608;2022-11-18T19:17:24;3.33;;;1.08;;
22415;SDS011;12204;50.600;4.608;2022-11-18T19:22:29;4.38;;;1.00;;
22415;SDS011;12204;50.600;4.608;2022-11-18T19:27:35;3.55;;;1.08;;
22415;SDS011;12204;50.600;4.608;2022-11-18T19:32:42;3.90;;;1.10;;
22415;SDS011;12204;50.600;4.608;2022-11-18T19:37:46;3.38;;;1.15;;
22415;SDS011;12204;50.600;4.608;2022-11-18T19:42:50;3.60;;;1.13;;
22415;SDS011;12204;50.600;4.608;2022-11-18T19:47:57;3.15;;;1.00;;
22415;SDS011;12204;50.600;4.608;2022-11-18T19:53:02;3.55;;;1.10;;
22415;SDS011;12204;50.600;4.608;2022-11-18T19:58:25;3.20;;;0.90;;
22415;SDS011;12204;50.600;4.608;2022-11-18T20:03:31;3.92;;;1.13;;
22415;SDS011;12204;50.600;4.608;2022-11-18T20:08:34;3.67;;;1.00;;
22415;SDS011;12204;50.600;4.608;2022-11-18T20:13:40;9.90;;;1.05;;
22415;SDS011;12204;50.600;4.608;2022-11-18T20:18:50;9.25;;;1.30;;
22415;SDS011;12204;50.600;4.608;2022-11-18T20:23:56;6.32;;;1.10;;
22415;SDS011;12204;50.600;4.608;2022-11-18T20:29:02;8.25;;;1.20;;
22415;SDS011;12204;50.600;4.608;2022-11-18T20:34:09;6.70;;;1.20;;
22415;SDS011;12204;50.600;4.608;2022-11-18T20:39:15;4.93;;;1.20;;
22415;SDS011;12204;50.600;4.608;2022-11-18T20:44:19;7.82;;;1.30;;
22415;SDS011;12204;50.600;4.608;2022-11-18T20:49:25;4.55;;;1.20;;
22415;SDS011;12204;50.600;4.608;2022-11-18T20:54:28;4.28;;;1.30;;
22415;SDS011;12204;50.600;4.608;2022-11-18T20:59:32;5.00;;;1.30;;
22415;SDS011;12204;50.600;4.608;2022-11-18T21:04:37;5.22;;;1.20;;
22415;SDS011;12204;50.600;4.608;2022-11-18T21:09:41;4.07;;;1.10;;
22415;SDS011;12204;50.600;4.608;2022-11-18T21:14:45;4.68;;;1.10;;
22415;SDS011;12204;50.600;4.608;2022-11-18T21:19:51;4.47;;;1.42;;
22415;SDS011;12204;50.600;4.608;2022-11-18T21:24:54;5.00;;;1.48;;
22415;SDS011;12204;50.600;4.608;2022-11-18T21:29:58;3.95;;;1.17;;
22415;SDS011;12204;50.600;4.608;2022-11-18T21:35:04;4.43;;;1.38;;
22415;SDS011;12204;50.600;4.608;2022-11-18T21:40:09;4.22;;;1.20;;
22415;SDS011;12204;50.600;4.608;2022-11-18T21:45:14;6.40;;;1.17;;
22415;SDS011;12204;50.600;4.608;2022-11-18T21:50:20;3.45;;;1.17;;
22415;SDS011;12204;50.600;4.608;2022-11-18T21:55:23;4.28;;;1.20;;
22415;SDS011;12204;50.600;4.608;2022-11-18T22:00:27;3.53;;;1.10;;
22415;SDS011;12204;50.600;4.608;2022-11-18T22:05:32;5.40;;;1.20;;
22415;SDS011;12204;50.600;4.608;2022-11-18T22:10:36;4.25;;;1.20;;
22415;SDS011;12204;50.600;4.608;2022-11-18T22:15:40;3.97;;;1.30;;
22415;SDS011;12204;50.600;4.608;2022-11-18T22:20:45;4.20;;;1.40;;
22415;SDS011;12204;50.600;4.608;2022-11-18T22:25:54;3.05;;;1.08;;
22415;SDS011;12204;50.600;4.608;2022-11-18T22:31:00;5.65;;;1.70;;
22415;SDS011;12204;50.600;4.608;2022-11-18T22:36:08;4.88;;;1.60;;
22415;SDS011;12204;50.600;4.608;2022-11-18T22:41:15;9.77;;;1.90;;
22415;SDS011;12204;50.600;4.608;2022-11-18T22:46:35;8.68;;;2.03;;
22415;SDS011;12204;50.600;4.608;2022-11-18T22:51:42;6.35;;;2.05;;
22415;SDS011;12204;50.600;4.608;2022-11-18T22:56:45;6.13;;;2.00;;
22415;SDS011;12204;50.600;4.608;2022-11-18T23:01:49;6.82;;;2.10;;
22415;SDS011;12204;50.600;4.608;2022-11-18T23:06:55;6.85;;;2.00;;
22415;SDS011;12204;50.600;4.608;2022-11-18T23:11:58;6.57;;;2.33;;
22415;SDS011;12204;50.600;4.608;2022-11-18T23:17:19;7.20;;;2.30;;
22415;SDS011;12204;50.600;4.608;2022-11-18T23:22:25;8.95;;;2.50;;
22415;SDS011;12204;50.600;4.608;2022-11-18T23:27:28;8.77;;;2.28;;
22415;SDS011;12204;50.600;4.608;2022-11-18T23:32:32;8.02;;;2.33;;
22415;SDS011;12204;50.600;4.608;2022-11-18T23:37:37;8.20;;;2.22;;
22415;SDS011;12204;50.600;4.608;2022-11-18T23:42:40;7.68;;;2.38;;
22415;SDS011;12204;50.600;4.608;2022-11-18T23:47:44;7.43;;;2.38;;
22415;SDS011;12204;50.600;4.608;2022-11-18T23:52:49;9.60;;;2.20;;
22415;SDS011;12204;50.600;4.608;2022-11-18T23:57:54;6.10;;;2.08;;
